Time;durP1;ratioP1;P1;durP2;ratioP2;P2;SDS_P1;SDS_P2;PMS_P1;PMS_P2;Temp;Humidity;BMP_temperature;BMP_pressure;BME280_temperature;BME280_humidity;BME280_pressure;Samples;Min_cycle;Max_cycle;Signal;HPM_P1;HPM_P2
2022/05/15 00:00:57;;;;;;;963.50;889.72;;;15.70;99.90;;;;;;5052099;28;20213;-76
2022/05/15 00:03:24;;;;;;;990.53;913.20;;;15.70;99.90;;;;;;5050109;28;20202;-77
2022/05/15 00:05:59;;;;;;;1003.80;926.25;;;15.60;99.90;;;;;;5036074;28;20652;-76
2022/05/15 00:08:27;;;;;;;1003.97;925.13;;;15.60;99.90;;;;;;5067609;28;20178;-75
2022/05/15 00:10:53;;;;;;;1021.25;939.92;;;15.60;99.90;;;;;;5071925;28;20553;-76
2022/05/15 00:13:19;;;;;;;1043.38;960.25;;;15.50;99.90;;;;;;5037935;28;20261;-76
2022/05/15 00:15:45;;;;;;;1044.13;959.85;;;15.50;99.90;;;;;;5044697;28;20554;-75
2022/05/15 00:18:11;;;;;;;1035.43;952.95;;;15.50;99.90;;;;;;5035542;28;20213;-75
2022/05/15 00:20:41;;;;;;;1061.70;976.00;;;15.50;99.90;;;;;;5049449;28;20190;-75
2022/05/15 00:23:10;;;;;;;1051.75;967.75;;;15.50;99.90;;;;;;5037081;28;20179;-75
2022/05/15 00:25:36;;;;;;;1070.60;982.00;;;15.40;99.90;;;;;;5034139;28;20186;-75
2022/05/15 00:28:02;;;;;;;1087.85;990.97;;;15.50;99.90;;;;;;5034136;28;20190;-76
2022/05/15 00:30:28;;;;;;;1094.53;994.03;;;15.50;99.90;;;;;;5035328;28;20194;-75
2022/05/15 00:32:54;;;;;;;1092.82;992.90;;;15.50;99.90;;;;;;5035538;28;20252;-75
2022/05/15 00:35:20;;;;;;;1081.90;988.45;;;15.40;99.90;;;;;;5035485;28;20198;-76
2022/05/15 00:37:46;;;;;;;1063.60;977.13;;;15.40;99.90;;;;;;5034499;28;20191;-76
2022/05/15 00:40:14;;;;;;;1073.90;984.78;;;15.40;99.90;;;;;;5034041;28;20249;-75
2022/05/15 00:42:40;;;;;;;1063.80;976.95;;;15.30;99.90;;;;;;5045800;28;20178;-76
2022/05/15 00:45:07;;;;;;;1086.65;990.47;;;15.30;99.90;;;;;;5066806;28;20206;-75
2022/05/15 00:47:33;;;;;;;1075.55;985.33;;;15.20;99.90;;;;;;5049953;28;20190;-75
2022/05/15 00:49:59;;;;;;;1067.90;980.97;;;15.20;99.90;;;;;;5032535;28;20186;-76
2022/05/15 00:52:31;;;;;;;1079.38;987.03;;;15.10;99.90;;;;;;5035190;28;20256;-76
2022/05/15 00:55:02;;;;;;;1058.22;973.22;;;15.10;99.90;;;;;;5033553;28;20663;-75
2022/05/15 00:57:47;;;;;;;1058.65;974.22;;;15.10;99.90;;;;;;5034933;28;20662;-76
2022/05/15 01:00:16;;;;;;;1026.30;945.95;;;15.10;99.90;;;;;;5034513;28;20263;-76
2022/05/15 01:02:50;;;;;;;1052.35;968.10;;;15.00;99.90;;;;;;5045016;28;20217;-75
2022/05/15 01:05:17;;;;;;;1051.80;967.95;;;15.00;99.90;;;;;;5044979;28;20222;-75
2022/05/15 01:07:43;;;;;;;1102.57;996.50;;;14.90;99.90;;;;;;5045419;28;20198;-75
2022/05/15 01:10:10;;;;;;;1099.22;994.63;;;14.80;99.90;;;;;;5035777;28;20451;-76
2022/05/15 01:12:40;;;;;;;1067.38;979.75;;;14.80;99.90;;;;;;5039829;28;20190;-75
2022/05/15 01:15:08;;;;;;;1066.35;979.70;;;14.80;99.90;;;;;;5034468;28;20647;-75
2022/05/15 01:17:33;;;;;;;1056.57;972.50;;;14.80;99.90;;;;;;5041721;28;20643;-75
2022/05/15 01:20:06;;;;;;;1076.68;985.83;;;14.70;99.90;;;;;;5033254;28;20190;-75
2022/05/15 01:22:32;;;;;;;1070.82;981.95;;;14.70;99.90;;;;;;5046531;28;20237;-75
2022/05/15 01:24:58;;;;;;;1085.70;988.63;;;14.80;99.90;;;;;;5052326;28;20229;-75
2022/05/15 01:27:24;;;;;;;1118.45;998.70;;;14.80;99.90;;;;;;5034819;28;20197;-75
2022/05/15 01:29:52;;;;;;;1117.13;999.08;;;14.70;99.90;;;;;;5033751;28;20273;-75
2022/05/15 01:32:18;;;;;;;1132.65;999.90;;;14.70;99.90;;;;;;5040273;28;20190;-75
2022/05/15 01:34:44;;;;;;;1121.45;999.90;;;14.70;99.90;;;;;;5033788;28;20214;-75
2022/05/15 01:37:10;;;;;;;1135.10;999.90;;;14.60;99.90;;;;;;5033908;28;20193;-75
2022/05/15 01:39:36;;;;;;;1166.07;999.90;;;14.60;99.90;;;;;;5033389;28;20190;-75
2022/05/15 01:42:02;;;;;;;1175.65;999.90;;;14.60;99.90;;;;;;5033777;28;20189;-75
2022/05/15 01:44:29;;;;;;;1187.90;999.90;;;14.50;99.90;;;;;;5020018;28;20214;-72
2022/05/15 01:46:55;;;;;;;1185.10;999.90;;;14.60;99.90;;;;;;5079283;28;20228;-75
2022/05/15 01:49:21;;;;;;;1206.07;999.90;;;14.50;99.90;;;;;;5036682;28;20186;-74
2022/05/15 01:51:47;;;;;;;1208.63;999.90;;;14.50;99.90;;;;;;5044048;28;20626;-75
2022/05/15 01:54:13;;;;;;;1207.63;999.90;;;14.50;99.90;;;;;;5032352;28;20237;-75
2022/05/15 01:56:40;;;;;;;1208.13;999.90;;;14.40;99.90;;;;;;5034019;28;20198;-73
2022/05/15 01:59:08;;;;;;;1213.05;999.90;;;14.40;99.90;;;;;;5043947;28;20222;-72
2022/05/15 02:01:35;;;;;;;1216.05;999.90;;;14.40;99.90;;;;;;5049184;28;20198;-73
2022/05/15 02:04:01;;;;;;;1218.95;999.90;;;14.30;99.90;;;;;;5033845;28;20274;-73
2022/05/15 02:06:28;;;;;;;1225.78;999.90;;;14.20;99.90;;;;;;5065471;28;20266;-73
2022/05/15 02:08:54;;;;;;;1222.15;999.90;;;14.20;99.90;;;;;;5033345;28;20550;-73
2022/05/15 02:11:20;;;;;;;1222.55;999.90;;;14.10;99.90;;;;;;5032627;28;20243;-73
2022/05/15 02:13:45;;;;;;;1242.45;999.90;;;14.10;99.90;;;;;;5032295;28;20617;-73
2022/05/15 02:16:11;;;;;;;1245.13;999.90;;;14.00;99.90;;;;;;5032432;28;20220;-75
2022/05/15 02:18:37;;;;;;;1252.85;999.90;;;14.00;99.90;;;;;;5031680;28;20222;-74
2022/05/15 02:21:03;;;;;;;1262.82;999.90;;;14.00;99.90;;;;;;5032180;28;20217;-73
2022/05/15 02:23:28;;;;;;;1278.53;999.90;;;14.00;99.90;;;;;;5032253;28;20192;-73
2022/05/15 02:25:54;;;;;;;1277.75;999.90;;;14.10;99.90;;;;;;5042043;28;20182;-73
2022/05/15 02:28:20;;;;;;;1283.13;999.90;;;14.00;99.90;;;;;;5029911;28;20646;-73
2022/05/15 02:30:49;;;;;;;1307.63;999.90;;;14.00;99.90;;;;;;5034490;28;20206;-73
2022/05/15 02:33:15;;;;;;;1287.65;999.90;;;14.00;99.90;;;;;;5047326;28;20205;-73
2022/05/15 02:35:41;;;;;;;1280.57;999.90;;;14.00;99.90;;;;;;5042443;28;20633;-73
2022/05/15 02:38:09;;;;;;;1265.63;999.90;;;13.90;99.90;;;;;;5033195;28;20270;-73
2022/05/15 02:40:35;;;;;;;1247.57;999.90;;;13.90;99.90;;;;;;5065097;28;20222;-73
2022/05/15 02:43:01;;;;;;;1255.15;999.90;;;13.90;99.90;;;;;;5033171;28;20191;-73
2022/05/15 02:45:26;;;;;;;1227.88;999.90;;;13.80;99.90;;;;;;5031858;28;20190;-73
2022/05/15 02:47:53;;;;;;;1227.57;999.90;;;13.80;99.90;;;;;;5052571;28;20186;-73
2022/05/15 02:53:04;;;;;;;1180.80;999.90;;;13.70;99.90;;;;;;5037523;28;20239;-72
2022/05/15 02:55:30;;;;;;;1117.63;999.90;;;13.70;99.90;;;;;;5036960;28;20202;-73
2022/05/15 02:57:55;;;;;;;684.63;644.63;;;13.60;99.90;;;;;;5036988;28;20586;-73
2022/05/15 03:00:24;;;;;;;712.50;670.58;;;13.60;99.90;;;;;;5035922;28;20539;-72
2022/05/15 03:02:50;;;;;;;721.50;679.90;;;13.70;99.90;;;;;;5037326;28;20183;-73
2022/05/15 03:05:18;;;;;;;764.05;718.03;;;13.60;99.90;;;;;;5022762;28;20182;-73
2022/05/15 03:07:44;;;;;;;770.08;722.13;;;13.60;99.90;;;;;;5044641;28;20190;-75
2022/05/15 03:10:12;;;;;;;729.13;686.42;;;13.60;99.90;;;;;;5039972;28;20669;-72
2022/05/15 03:12:38;;;;;;;708.75;667.92;;;13.50;99.90;;;;;;5051328;28;20592;-72
2022/05/15 03:15:05;;;;;;;692.78;652.97;;;13.50;99.90;;;;;;5036597;28;20225;-72
2022/05/15 03:17:32;;;;;;;707.72;667.00;;;13.40;99.90;;;;;;5019387;28;20198;-72
2022/05/15 03:19:58;;;;;;;694.20;654.80;;;13.20;99.90;;;;;;5032081;28;20190;-73
2022/05/15 03:22:24;;;;;;;670.60;632.22;;;13.10;99.90;;;;;;5041137;28;20193;-73
2022/05/15 03:24:49;;;;;;;651.80;615.63;;;13.10;99.90;;;;;;5052364;28;20191;-73
2022/05/15 03:27:16;;;;;;;658.35;621.83;;;13.10;99.90;;;;;;5035599;28;20757;-74
2022/05/15 03:29:42;;;;;;;638.85;603.45;;;13.10;99.90;;;;;;5035154;28;20194;-76
2022/05/15 03:32:08;;;;;;;663.33;626.50;;;13.10;99.90;;;;;;5051126;28;20563;-75
2022/05/15 03:34:33;;;;;;;668.63;630.85;;;13.10;99.90;;;;;;5068257;28;20300;-75
2022/05/15 03:36:59;;;;;;;682.13;643.78;;;13.10;99.90;;;;;;5050437;28;20560;-75
2022/05/15 03:39:25;;;;;;;626.92;592.38;;;13.10;99.90;;;;;;5046913;28;20198;-73
2022/05/15 03:41:51;;;;;;;641.88;605.85;;;13.00;99.90;;;;;;5035007;28;20252;-72
2022/05/15 03:44:17;;;;;;;673.90;635.58;;;12.90;99.90;;;;;;5068291;28;20613;-72
2022/05/15 03:46:44;;;;;;;670.22;632.30;;;13.00;99.90;;;;;;5035042;28;20622;-72
2022/05/15 03:49:11;;;;;;;639.83;604.42;;;13.00;99.90;;;;;;5050220;28;20190;-72
2022/05/15 03:51:37;;;;;;;688.70;649.45;;;13.10;99.90;;;;;;5050082;28;20236;-72
2022/05/15 03:54:04;;;;;;;679.08;640.28;;;13.10;99.90;;;;;;5035731;28;20301;-73
2022/05/15 03:59:15;;;;;;;660.85;623.33;;;13.10;99.90;;;;;;5037681;28;20253;-73
2022/05/15 04:01:41;;;;;;;702.72;662.65;;;13.10;99.90;;;;;;5035487;28;20194;-75
2022/05/15 04:04:11;;;;;;;703.95;663.88;;;13.20;99.90;;;;;;5067831;28;20197;-75
2022/05/15 04:06:38;;;;;;;678.70;639.85;;;13.20;99.90;;;;;;5034705;28;20203;-75
2022/05/15 04:09:04;;;;;;;674.83;636.75;;;13.00;99.90;;;;;;5035894;28;20186;-75
2022/05/15 04:11:30;;;;;;;676.63;638.08;;;13.00;99.90;;;;;;5035685;28;20266;-75
2022/05/15 04:13:56;;;;;;;667.85;630.38;;;13.00;99.90;;;;;;5033638;28;20305;-73
2022/05/15 04:16:25;;;;;;;658.58;621.63;;;13.00;99.90;;;;;;5037664;28;20627;-72
2022/05/15 04:18:50;;;;;;;645.60;609.88;;;13.00;99.90;;;;;;5035453;28;20563;-73
2022/05/15 04:21:16;;;;;;;657.42;620.45;;;13.00;99.90;;;;;;5035024;28;20196;-73
2022/05/15 04:23:42;;;;;;;671.00;633.05;;;13.00;99.90;;;;;;5044335;28;20212;-75
2022/05/15 04:26:07;;;;;;;636.05;600.95;;;13.00;99.90;;;;;;5049868;28;20186;-70
2022/05/15 04:28:35;;;;;;;650.38;613.67;;;13.00;99.90;;;;;;5035207;28;20605;-72
2022/05/15 04:31:01;;;;;;;658.60;621.85;;;13.00;99.90;;;;;;5071090;28;20235;-70
2022/05/15 04:33:27;;;;;;;669.05;631.03;;;13.00;99.90;;;;;;5052008;28;20182;-70
2022/05/15 04:35:53;;;;;;;681.47;642.88;;;13.00;99.90;;;;;;5045461;28;20195;-71
2022/05/15 04:38:19;;;;;;;660.03;623.85;;;13.00;99.90;;;;;;5033996;28;20624;-75
2022/05/15 04:40:44;;;;;;;637.75;602.22;;;13.00;99.90;;;;;;5045380;28;20193;-73
2022/05/15 04:43:10;;;;;;;607.00;573.47;;;13.00;99.90;;;;;;5052857;28;20198;-73
2022/05/15 04:45:36;;;;;;;626.10;591.97;;;13.10;99.90;;;;;;5038600;28;20187;-71
2022/05/15 04:48:05;;;;;;;624.60;590.22;;;13.20;99.90;;;;;;5035069;28;20184;-74
2022/05/15 04:50:30;;;;;;;598.47;565.83;;;13.30;99.90;;;;;;5033665;28;20179;-74
2022/05/15 04:52:59;;;;;;;633.00;598.42;;;13.20;99.90;;;;;;5033873;28;20189;-74
2022/05/15 04:55:26;;;;;;;612.28;579.28;;;13.30;99.90;;;;;;5034239;28;20218;-74
2022/05/15 04:57:52;;;;;;;662.50;625.22;;;13.50;99.90;;;;;;5033582;28;20178;-74
2022/05/15 05:00:18;;;;;;;664.70;626.28;;;13.50;99.90;;;;;;5044440;28;20699;-73
2022/05/15 05:02:44;;;;;;;676.15;636.65;;;13.50;99.90;;;;;;5034435;28;20198;-74
2022/05/15 05:05:10;;;;;;;621.67;587.75;;;13.60;99.90;;;;;;5033575;28;20277;-77
2022/05/15 05:07:36;;;;;;;620.53;586.25;;;13.60;99.90;;;;;;5033415;28;20190;-75
2022/05/15 05:10:03;;;;;;;597.67;564.38;;;13.50;99.90;;;;;;5032955;28;20175;-73
2022/05/15 05:12:29;;;;;;;612.28;579.10;;;13.50;99.90;;;;;;5034593;28;20193;-72
2022/05/15 05:14:57;;;;;;;490.67;466.30;;;13.40;99.90;;;;;;5049717;28;20214;-72
2022/05/15 05:17:24;;;;;;;516.15;490.60;;;13.40;99.90;;;;;;5050307;28;20233;-76
2022/05/15 05:19:50;;;;;;;552.20;522.88;;;13.50;99.90;;;;;;5033314;28;20191;-74
2022/05/15 05:22:15;;;;;;;610.80;577.80;;;13.40;99.90;;;;;;5049557;28;20194;-75
2022/05/15 05:24:41;;;;;;;697.10;656.47;;;13.50;99.90;;;;;;5033632;28;20202;-73
2022/05/15 05:27:07;;;;;;;667.10;628.20;;;13.80;99.90;;;;;;5043251;28;20230;-72
2022/05/15 05:29:34;;;;;;;619.00;585.63;;;13.90;99.90;;;;;;5042907;28;20264;-73
2022/05/15 05:32:00;;;;;;;589.13;556.90;;;14.10;99.90;;;;;;5035680;28;20186;-72
2022/05/15 05:34:25;;;;;;;543.38;515.25;;;14.20;99.90;;;;;;5042827;28;20230;-73
2022/05/15 05:36:51;;;;;;;512.10;486.23;;;14.10;99.90;;;;;;5027402;28;20194;-72
2022/05/15 05:39:20;;;;;;;502.63;477.33;;;14.20;99.90;;;;;;5026273;28;20191;-75
2022/05/15 05:41:46;;;;;;;485.55;461.05;;;14.20;99.90;;;;;;5048967;28;20190;-72
2022/05/15 05:44:12;;;;;;;502.17;476.73;;;14.30;99.90;;;;;;5048710;28;20272;-72
2022/05/15 05:46:37;;;;;;;555.88;526.83;;;14.40;99.90;;;;;;5032389;28;20644;-72
2022/05/15 05:49:03;;;;;;;568.17;537.67;;;14.40;99.90;;;;;;5036410;28;20272;-72
2022/05/15 05:51:29;;;;;;;526.03;498.20;;;14.40;99.90;;;;;;5046828;28;20537;-72
2022/05/15 05:53:54;;;;;;;532.28;504.63;;;14.40;99.90;;;;;;5032878;28;20264;-72
2022/05/15 05:56:23;;;;;;;516.28;488.15;;;14.60;99.90;;;;;;5030172;28;20551;-72
2022/05/15 05:58:49;;;;;;;524.95;497.92;;;14.80;99.90;;;;;;5041270;28;20178;-72
2022/05/15 06:01:15;;;;;;;526.38;498.30;;;14.80;99.90;;;;;;5032266;28;20285;-73
2022/05/15 06:06:25;;;;;;;469.35;444.55;;;14.90;99.90;;;;;;5033512;28;20190;-73
2022/05/15 06:08:50;;;;;;;508.13;481.27;;;15.00;99.90;;;;;;5032258;28;20190;-73
2022/05/15 06:11:16;;;;;;;483.23;457.65;;;15.20;99.90;;;;;;5048737;28;20639;-76
2022/05/15 06:13:42;;;;;;;505.45;478.80;;;15.50;99.90;;;;;;5017525;28;20340;-73
2022/05/15 06:16:08;;;;;;;503.30;475.88;;;15.60;99.90;;;;;;5033802;28;20620;-73
2022/05/15 06:18:35;;;;;;;474.25;449.45;;;15.70;99.90;;;;;;5032163;28;20185;-73
2022/05/15 06:21:00;;;;;;;428.45;406.65;;;15.90;99.90;;;;;;5044510;28;20631;-72
2022/05/15 06:23:26;;;;;;;465.38;440.67;;;16.00;99.90;;;;;;5032011;28;20197;-72
2022/05/15 06:25:52;;;;;;;409.08;388.20;;;15.80;99.90;;;;;;5060224;28;20273;-72
2022/05/15 06:28:19;;;;;;;429.50;406.73;;;15.90;99.90;;;;;;5036861;28;20278;-72
2022/05/15 06:30:45;;;;;;;409.63;388.63;;;15.90;99.90;;;;;;5031879;28;20185;-72
2022/05/15 06:33:10;;;;;;;413.55;392.58;;;15.80;99.90;;;;;;5045604;28;20617;-72
2022/05/15 06:35:36;;;;;;;423.17;400.70;;;15.80;99.90;;;;;;5032945;28;20730;-73
2022/05/15 06:38:06;;;;;;;418.05;396.58;;;15.90;99.90;;;;;;5033936;28;20285;-72
2022/05/15 06:40:33;;;;;;;411.00;389.90;;;15.90;99.90;;;;;;5031891;28;20197;-72
2022/05/15 06:42:59;;;;;;;411.77;390.50;;;16.00;99.90;;;;;;5048631;28;20198;-72
2022/05/15 06:45:26;;;;;;;437.95;414.80;;;15.90;99.90;;;;;;5031659;28;20678;-72
2022/05/15 06:47:52;;;;;;;402.90;382.40;;;16.10;99.90;;;;;;5042400;28;20281;-72
2022/05/15 06:50:18;;;;;;;443.58;420.27;;;16.40;99.90;;;;;;5040665;28;20281;-73
2022/05/15 06:52:44;;;;;;;387.40;367.38;;;16.80;99.90;;;;;;5015610;28;20190;-72
2022/05/15 06:55:13;;;;;;;343.25;325.77;;;17.00;99.90;;;;;;5065440;28;20634;-73
2022/05/15 06:57:41;;;;;;;334.67;316.73;;;16.90;99.90;;;;;;5044448;28;20220;-72
2022/05/15 07:00:11;;;;;;;321.45;304.42;;;17.00;99.90;;;;;;5039273;28;20252;-73
2022/05/15 07:02:37;;;;;;;329.80;312.30;;;17.20;99.90;;;;;;5046299;28;20233;-72
2022/05/15 07:05:04;;;;;;;304.35;287.58;;;17.40;99.90;;;;;;5032039;28;20190;-72
2022/05/15 07:07:30;;;;;;;315.10;298.20;;;17.60;99.90;;;;;;5031786;28;20179;-73
2022/05/15 07:09:56;;;;;;;288.15;272.38;;;17.70;99.90;;;;;;5020608;28;20281;-72
2022/05/15 07:12:23;;;;;;;318.77;301.02;;;17.60;99.90;;;;;;5035840;28;20217;-73
2022/05/15 07:14:49;;;;;;;282.52;266.10;;;17.90;99.90;;;;;;5037982;28;20390;-73
2022/05/15 07:17:17;;;;;;;288.75;271.80;;;18.00;99.90;;;;;;5015701;28;20217;-73
2022/05/15 07:19:43;;;;;;;297.33;279.85;;;18.10;99.90;;;;;;5025321;28;20576;-73
2022/05/15 07:22:12;;;;;;;352.92;330.83;;;18.30;99.90;;;;;;5031691;28;20346;-72
2022/05/15 07:24:39;;;;;;;720.67;670.28;;;19.30;99.90;;;;;;5033063;28;20220;-72
2022/05/15 07:27:09;;;;;;;1223.85;999.90;;;20.80;99.90;;;;;;5042665;28;20213;-72
2022/05/15 07:29:39;;;;;;;1165.40;999.90;;;22.80;99.90;;;;;;5040054;28;20257;-72
2022/05/15 07:32:07;;;;;;;1069.85;991.00;;;24.50;99.90;;;;;;5034260;28;20183;-72
2022/05/15 07:34:34;;;;;;;490.60;464.67;;;25.20;99.90;;;;;;5036272;28;20296;-72
2022/05/15 07:37:03;;;;;;;222.77;209.63;;;24.80;99.90;;;;;;5068257;28;20219;-72
2022/05/15 07:39:29;;;;;;;208.48;194.43;;;25.30;99.90;;;;;;5056062;28;20650;-72
2022/05/15 07:41:55;;;;;;;327.40;308.65;;;25.60;99.90;;;;;;5053628;28;20261;-72
2022/05/15 07:44:21;;;;;;;532.78;504.58;;;26.00;99.90;;;;;;5036135;28;20217;-72
2022/05/15 07:46:47;;;;;;;640.08;603.80;;;26.40;99.90;;;;;;5044829;28;20186;-72
2022/05/15 07:49:13;;;;;;;791.47;744.13;;;26.90;99.90;;;;;;5041948;28;20244;-72
2022/05/15 07:51:44;;;;;;;886.08;829.15;;;26.70;99.90;;;;;;5036429;28;20192;-72
2022/05/15 07:54:14;;;;;;;812.00;762.28;;;26.50;99.90;;;;;;5036045;28;20300;-72
2022/05/15 07:56:40;;;;;;;820.45;769.88;;;26.90;99.90;;;;;;5036315;28;20206;-72
2022/05/15 07:59:12;;;;;;;825.17;774.65;;;26.90;99.90;;;;;;5035973;28;20571;-72
2022/05/15 08:01:39;;;;;;;874.60;818.55;;;27.10;99.90;;;;;;5035908;28;20206;-72
2022/05/15 08:04:04;;;;;;;854.75;801.50;;;26.60;99.90;;;;;;5034996;28;20629;-72
2022/05/15 08:09:14;;;;;;;865.92;811.03;;;28.30;99.90;;;;;;5036470;28;20250;-72
2022/05/15 08:11:40;;;;;;;856.50;803.15;;;28.00;99.90;;;;;;5017918;28;20671;-71
2022/05/15 08:14:08;;;;;;;873.40;817.67;;;28.10;99.90;;;;;;5046048;28;20219;-72
2022/05/15 08:16:35;;;;;;;926.15;864.95;;;28.60;99.90;;;;;;5041481;28;20225;-73
2022/05/15 08:24:31;;;;;;;930.22;869.33;;;28.70;99.90;;;;;;5034338;28;20701;-71
2022/05/15 08:26:57;;;;;;;886.78;829.92;;;28.60;99.90;;;;;;5046351;28;20194;-72
2022/05/15 08:29:22;;;;;;;843.90;791.25;;;28.00;99.90;;;;;;5054358;28;20182;-71
2022/05/15 08:31:48;;;;;;;866.78;812.45;;;28.00;99.90;;;;;;5049273;28;20197;-74
2022/05/15 08:34:14;;;;;;;808.42;759.78;;;28.40;99.90;;;;;;5055357;28;20224;-71
2022/05/15 08:36:42;;;;;;;781.80;736.03;;;28.60;99.90;;;;;;5050150;28;20216;-71
2022/05/15 08:39:17;;;;;;;808.35;759.97;;;28.10;99.90;;;;;;5033563;28;20526;-71
2022/05/15 08:42:00;;;;;;;863.30;809.10;;;28.10;99.90;;;;;;5067534;28;20284;-71
2022/05/15 08:44:33;;;;;;;882.15;826.05;;;28.90;99.90;;;;;;5034109;28;20650;-70
2022/05/15 08:47:17;;;;;;;844.35;791.72;;;28.60;99.90;;;;;;5034046;28;20665;-71
2022/05/15 08:49:50;;;;;;;818.20;768.50;;;28.40;99.90;;;;;;5035592;28;20572;-72
2022/05/15 08:52:39;;;;;;;800.60;753.55;;;27.50;99.90;;;;;;5033932;28;20312;-71
2022/05/15 08:55:09;;;;;;;772.38;727.47;;;27.90;99.90;;;;;;5049362;28;20236;-71
2022/05/15 08:57:37;;;;;;;769.45;724.83;;;28.30;99.90;;;;;;5036396;28;20544;-71
2022/05/15 09:00:05;;;;;;;715.83;675.22;;;28.20;99.90;;;;;;5039209;28;20281;-71
2022/05/15 09:02:31;;;;;;;618.50;585.30;;;28.50;99.90;;;;;;5051186;28;20665;-70
2022/05/15 09:04:57;;;;;;;551.25;523.45;;;28.10;99.90;;;;;;5034575;28;20236;-72
2022/05/15 09:07:43;;;;;;;607.50;575.65;;;28.20;99.90;;;;;;5048582;28;20213;-71
2022/05/15 09:10:22;;;;;;;494.17;469.42;;;28.90;99.90;;;;;;5035588;28;20637;-71
2022/05/15 09:12:57;;;;;;;450.95;428.55;;;28.30;99.90;;;;;;5048781;28;20190;-71
2022/05/15 09:15:28;;;;;;;461.05;438.67;;;27.80;99.90;;;;;;5034418;28;20209;-71
2022/05/15 09:18:03;;;;;;;493.85;469.40;;;27.60;99.90;;;;;;5042859;28;20380;-71
2022/05/15 09:20:54;;;;;;;454.33;431.92;;;27.70;99.90;;;;;;5034360;28;20182;-72
2022/05/15 09:23:29;;;;;;;549.13;505.02;;;27.10;99.90;;;;;;5066349;28;20292;-72
2022/05/15 09:26:16;;;;;;;333.85;317.98;;;26.20;99.90;;;;;;5078482;28;20199;-71
2022/05/15 09:28:49;;;;;;;301.35;287.27;;;25.10;99.90;;;;;;5040285;28;20186;-72
2022/05/15 09:31:47;;;;;;;204.45;194.60;;;24.80;99.90;;;;;;5035360;28;20182;-72
2022/05/15 09:34:25;;;;;;;165.85;157.43;;;24.80;99.90;;;;;;5052973;28;20654;-70
2022/05/15 09:38:26;;;;;;;137.73;130.43;;;24.60;99.90;;;;;;5039639;28;20178;-75
2022/05/15 09:39:43;;;;;;;139.50;131.48;;;24.50;99.90;;;;;;5034223;28;20233;-71
2022/05/15 09:45:22;;;;;;;98.85;93.55;;;24.30;99.90;;;;;;5034043;28;20182;-72
2022/05/15 09:47:51;;;;;;;105.32;99.97;;;24.10;99.90;;;;;;5033154;28;20202;-72
2022/05/15 09:50:55;;;;;;;156.07;147.27;;;24.30;99.90;;;;;;5032762;28;20548;-72
2022/05/15 09:53:36;;;;;;;144.57;132.10;;;24.20;99.90;;;;;;5033466;28;20681;-71
2022/05/15 09:56:29;;;;;;;150.63;143.07;;;24.30;99.90;;;;;;5033707;28;20666;-71
2022/05/15 09:59:10;;;;;;;139.52;133.02;;;24.40;99.90;;;;;;5033298;28;20737;-72
2022/05/15 10:01:41;;;;;;;151.65;144.70;;;24.30;99.90;;;;;;5033958;28;20201;-72
2022/05/15 10:04:22;;;;;;;161.95;155.05;;;24.40;99.90;;;;;;5077188;28;20193;-72
2022/05/15 10:07:03;;;;;;;152.30;145.13;;;24.70;99.90;;;;;;5033736;28;20166;-72
2022/05/15 10:09:35;;;;;;;169.15;161.45;;;24.80;99.90;;;;;;5034129;28;20186;-71
2022/05/15 10:12:15;;;;;;;143.98;137.15;;;24.90;99.90;;;;;;5032527;28;20190;-72
2022/05/15 10:14:54;;;;;;;172.88;164.90;;;24.70;99.90;;;;;;5033593;28;20445;-72
2022/05/15 10:17:22;;;;;;;192.43;183.95;;;24.70;99.90;;;;;;5047487;28;20186;-71
2022/05/15 10:20:11;;;;;;;193.98;185.68;;;24.80;99.90;;;;;;5069575;28;20194;-71
2022/05/15 10:22:56;;;;;;;175.35;166.93;;;24.80;99.90;;;;;;5033165;28;20209;-73
2022/05/15 10:25:40;;;;;;;135.63;129.18;;;25.20;99.90;;;;;;5050768;28;20587;-72
2022/05/15 10:28:21;;;;;;;155.65;148.00;;;25.60;99.90;;;;;;5031887;28;20709;-72
2022/05/15 10:31:11;;;;;;;148.20;141.57;;;25.40;99.90;;;;;;5065790;28;20286;-72
2022/05/15 10:33:43;;;;;;;135.15;128.65;;;25.30;99.90;;;;;;5033100;28;20244;-73
2022/05/15 10:36:25;;;;;;;141.30;134.70;;;25.40;99.90;;;;;;5046898;28;20191;-72
2022/05/15 10:39:16;;;;;;;159.68;152.20;;;25.40;99.90;;;;;;5083030;28;20182;-71
2022/05/15 10:41:55;;;;;;;144.27;136.68;;;25.40;99.90;;;;;;5034640;28;20237;-72
2022/05/15 10:44:59;;;;;;;133.77;127.57;;;25.20;99.90;;;;;;5040723;28;20198;-72
2022/05/15 10:47:44;;;;;;;144.13;137.55;;;25.10;99.90;;;;;;5047191;28;20190;-71
2022/05/15 10:50:38;;;;;;;149.73;142.55;;;25.00;99.90;;;;;;5033765;28;20582;-71
2022/05/15 10:59:53;;;;;;;152.38;145.77;;;24.80;99.90;;;;;;5033002;28;20185;-73
2022/05/15 11:02:49;;;;;;;151.10;144.65;;;25.20;99.90;;;;;;5048506;28;20543;-72
2022/05/15 11:05:30;;;;;;;165.07;157.48;;;25.30;99.90;;;;;;5031784;28;20214;-72
2022/05/15 11:08:01;;;;;;;175.02;167.73;;;24.90;99.90;;;;;;5068066;28;20205;-73
2022/05/15 11:10:38;;;;;;;206.98;198.00;;;24.80;99.90;;;;;;5035516;28;20178;-73
2022/05/15 11:13:12;;;;;;;182.38;174.48;;;25.20;99.90;;;;;;5069126;28;20189;-72
2022/05/15 11:16:05;;;;;;;178.32;170.52;;;25.30;99.90;;;;;;5035729;28;20202;-73
2022/05/15 11:18:55;;;;;;;172.50;165.07;;;25.20;99.90;;;;;;5045023;28;20578;-72
2022/05/15 11:21:42;;;;;;;177.82;170.30;;;25.30;99.90;;;;;;5053929;28;20177;-72
2022/05/15 11:24:31;;;;;;;175.25;167.90;;;25.50;99.90;;;;;;5054052;28;20181;-73
2022/05/15 11:27:04;;;;;;;174.77;167.45;;;25.40;99.90;;;;;;5051853;28;20232;-72
2022/05/15 11:29:33;;;;;;;159.55;152.40;;;25.50;99.90;;;;;;5036468;28;20187;-72
2022/05/15 11:31:58;;;;;;;164.80;157.38;;;25.70;99.90;;;;;;5036428;28;20195;-72
2022/05/15 11:35:18;;;;;;;189.60;180.60;;;25.70;99.90;;;;;;5051527;28;20219;-73
2022/05/15 11:37:52;;;;;;;137.60;130.52;;;25.80;99.90;;;;;;5032785;28;20196;-73
2022/05/15 11:40:52;;;;;;;127.88;122.68;;;25.80;99.90;;;;;;5016451;28;20194;-71
2022/05/15 11:43:34;;;;;;;154.43;148.43;;;25.90;99.90;;;;;;5008232;28;20613;-72
2022/05/15 11:45:59;;;;;;;149.75;143.43;;;26.00;99.90;;;;;;5040193;28;20178;-73
2022/05/15 11:48:33;;;;;;;146.40;139.82;;;25.90;99.90;;;;;;5068275;28;20278;-72
2022/05/15 11:51:24;;;;;;;153.60;146.90;;;25.90;99.90;;;;;;5036180;28;20539;-72
2022/05/15 11:54:08;;;;;;;160.40;153.45;;;26.10;99.90;;;;;;5044850;28;20175;-72
2022/05/15 11:57:01;;;;;;;153.40;146.73;;;26.30;99.90;;;;;;5036424;28;20190;-72
2022/05/15 11:59:28;;;;;;;168.23;161.10;;;26.50;99.90;;;;;;5035098;28;20218;-72
2022/05/15 12:01:55;;;;;;;174.27;166.43;;;26.30;99.90;;;;;;5050385;28;20206;-71
2022/05/15 12:04:46;;;;;;;128.50;123.18;;;26.20;99.90;;;;;;5047724;28;20182;-71
2022/05/15 12:07:14;;;;;;;160.23;153.05;;;26.40;99.90;;;;;;5036035;28;20635;-73
2022/05/15 12:09:40;;;;;;;201.50;192.95;;;26.60;99.90;;;;;;5037056;28;20678;-73
2022/05/15 12:12:24;;;;;;;149.60;143.23;;;26.50;99.90;;;;;;5055279;28;20174;-74
2022/05/15 12:15:16;;;;;;;139.07;133.05;;;26.40;99.90;;;;;;5035658;28;20210;-72
2022/05/15 12:17:47;;;;;;;165.77;158.40;;;26.60;99.90;;;;;;5082397;28;20244;-72
2022/05/15 12:20:16;;;;;;;148.05;141.48;;;26.30;99.90;;;;;;5048105;28;20640;-72
2022/05/15 12:22:52;;;;;;;154.95;148.43;;;26.20;99.90;;;;;;5035943;28;20186;-72
2022/05/15 12:25:22;;;;;;;193.57;184.02;;;26.40;99.90;;;;;;5035629;28;20213;-73
2022/05/15 12:27:53;;;;;;;151.13;144.40;;;26.50;99.90;;;;;;5035437;28;20225;-73
2022/05/15 12:30:24;;;;;;;167.75;160.55;;;26.70;99.90;;;;;;5067458;28;20218;-71
2022/05/15 12:33:00;;;;;;;165.57;158.45;;;26.60;99.90;;;;;;5035774;28;20194;-73
2022/05/15 12:35:43;;;;;;;161.82;154.70;;;26.50;99.90;;;;;;5035300;28;20702;-73
2022/05/15 12:38:12;;;;;;;196.52;187.63;;;26.40;99.90;;;;;;5035454;28;20163;-72
2022/05/15 12:41:04;;;;;;;177.73;170.18;;;26.50;99.90;;;;;;5049842;28;20550;-72
2022/05/15 12:43:32;;;;;;;190.60;181.93;;;26.50;99.90;;;;;;5034514;28;20187;-72
2022/05/15 12:45:58;;;;;;;164.55;157.75;;;26.30;99.90;;;;;;5035137;28;20194;-73
2022/05/15 12:48:25;;;;;;;196.27;188.00;;;26.50;99.90;;;;;;5035169;28;20179;-72